createdAt,value
2019-04-20T00:01:19.184Z,14.57
2019-04-20T00:03:45.667Z,8.80
2019-04-20T00:06:15.208Z,7.60
2019-04-20T00:08:46.232Z,9.00
2019-04-20T00:11:23.447Z,8.67
2019-04-20T00:13:56.221Z,9.93
2019-04-20T00:16:18.852Z,9.47
2019-04-20T00:18:50.530Z,8.77
2019-04-20T00:21:43.105Z,6.37
2019-04-20T00:24:20.039Z,11.20
2019-04-20T00:29:40.438Z,7.77
2019-04-20T00:32:02.776Z,8.27
2019-04-20T00:34:33.254Z,10.73
2019-04-20T00:36:56.125Z,6.80
2019-04-20T00:39:23.898Z,7.60
2019-04-20T00:41:57.128Z,7.93
2019-04-20T00:44:28.728Z,8.03
2019-04-20T00:47:08.532Z,10.53
2019-04-20T00:49:44.482Z,7.50
2019-04-20T00:52:26.741Z,8.27
2019-04-20T00:54:30.602Z,8.90
2019-04-20T00:57:09.286Z,7.73
2019-04-20T00:59:51.432Z,9.40
2019-04-20T01:02:19.305Z,13.70
2019-04-20T01:04:47.655Z,7.47
2019-04-20T01:07:29.832Z,15.93
2019-04-20T01:10:15.103Z,6.80
2019-04-20T01:12:44.474Z,9.30
2019-04-20T01:15:25.589Z,9.40
2019-04-20T01:17:46.906Z,8.73
2019-04-20T01:20:17.024Z,9.33
2019-04-20T01:22:53.854Z,10.77
2019-04-20T01:25:27.270Z,7.83
2019-04-20T01:28:07.955Z,7.77
2019-04-20T01:30:34.977Z,7.83
2019-04-20T01:33:12.455Z,7.27
2019-04-20T01:35:48.019Z,8.80
2019-04-20T01:38:16.617Z,8.53
2019-04-20T01:40:29.535Z,8.47
2019-04-20T01:42:59.418Z,11.37
2019-04-20T01:45:37.697Z,7.97
2019-04-20T01:48:04.374Z,8.13
2019-04-20T01:50:37.138Z,13.10
2019-04-20T01:53:12.470Z,9.20
2019-04-20T01:55:47.961Z,11.60
2019-04-20T01:58:25.392Z,7.77
2019-04-20T02:00:54.791Z,9.93
2019-04-20T02:04:01.877Z,10.03
2019-04-20T02:06:46.200Z,11.30
2019-04-20T02:09:14.759Z,12.33
2019-04-20T02:11:46.509Z,13.70
2019-04-20T02:14:13.424Z,11.63
2019-04-20T02:16:49.591Z,12.83
2019-04-20T02:19:30.339Z,9.57
2019-04-20T02:22:03.565Z,9.90
2019-04-20T02:24:19.488Z,11.73
2019-04-20T02:26:50.070Z,14.73
2019-04-20T02:29:40.208Z,12.67
2019-04-20T02:40:35.257Z,11.50
2019-04-20T02:42:51.077Z,11.73
2019-04-20T02:45:27.839Z,8.87
2019-04-20T02:48:01.577Z,11.27
2019-04-20T02:50:37.972Z,9.40
2019-04-20T02:55:27.679Z,12.53
2019-04-20T02:57:55.551Z,11.67
2019-04-20T03:02:34.588Z,11.87
2019-04-20T03:05:02.676Z,10.10
2019-04-20T03:07:34.334Z,10.17
2019-04-20T03:10:08.337Z,10.20
2019-04-20T03:12:44.927Z,10.07
2019-04-20T03:15:09.531Z,10.43
2019-04-20T03:17:46.009Z,10.47
2019-04-20T03:20:03.525Z,11.00
2019-04-20T03:23:05.997Z,10.47
2019-04-20T03:25:24.175Z,10.93
2019-04-20T03:27:59.645Z,10.67
2019-04-20T03:31:24.646Z,14.60
2019-04-20T03:33:31.359Z,12.00
2019-04-20T03:36:10.401Z,16.40
2019-04-20T03:38:20.190Z,12.70
2019-04-20T03:40:57.401Z,11.37
2019-04-20T03:43:12.049Z,11.73
2019-04-20T03:45:47.541Z,11.27
2019-04-20T03:48:29.474Z,11.43
2019-04-20T03:50:57.728Z,11.43
2019-04-20T03:53:31.301Z,17.50
2019-04-20T03:56:21.567Z,12.87
2019-04-20T03:58:55.392Z,12.57
2019-04-20T04:02:17.377Z,10.87
2019-04-20T04:04:34.328Z,13.60
2019-04-20T04:06:47.913Z,14.63
2019-04-20T04:09:28.655Z,12.90
2019-04-20T04:11:58.583Z,13.23
2019-04-20T04:14:17.758Z,13.63
2019-04-20T04:16:51.577Z,15.27
2019-04-20T04:19:21.645Z,14.57
2019-04-20T04:21:59.232Z,16.80
2019-04-20T04:24:25.987Z,17.50
2019-04-20T04:27:00.992Z,18.13
2019-04-20T04:29:40.225Z,17.07
2019-04-20T04:32:12.486Z,14.57
2019-04-20T04:34:34.924Z,16.00
2019-04-20T04:37:07.312Z,14.43
2019-04-20T04:39:35.418Z,15.57
2019-04-20T04:42:16.653Z,17.37
2019-04-20T04:44:34.353Z,20.40
2019-04-20T04:46:57.997Z,16.00
2019-04-20T04:49:26.298Z,18.83
2019-04-20T04:51:59.279Z,21.27
2019-04-20T04:54:27.950Z,16.77
2019-04-20T04:56:52.585Z,17.57
2019-04-20T04:59:21.401Z,19.87
2019-04-20T05:01:53.120Z,18.30
2019-04-20T05:04:44.506Z,17.83
2019-04-20T05:07:02.544Z,15.03
2019-04-20T05:09:20.874Z,15.20
2019-04-20T05:11:56.914Z,16.03
2019-04-20T05:14:24.227Z,19.13
2019-04-20T05:17:04.266Z,17.60
2019-04-20T05:19:42.903Z,18.23
2019-04-20T05:22:14.895Z,16.00
2019-04-20T05:25:06.783Z,19.40
2019-04-20T05:27:59.379Z,20.73
2019-04-20T05:30:05.937Z,20.80
2019-04-20T05:32:48.357Z,16.17
2019-04-20T05:35:40.219Z,18.40
2019-04-20T05:38:28.253Z,18.73
2019-04-20T05:40:47.662Z,21.13
2019-04-20T05:43:26.400Z,22.23
2019-04-20T05:45:47.833Z,20.27
2019-04-20T05:48:19.470Z,19.00
2019-04-20T05:50:54.923Z,22.67
2019-04-20T05:53:30.525Z,17.77
2019-04-20T05:55:54.417Z,19.17
2019-04-20T05:58:26.134Z,21.40
2019-04-20T06:01:00.475Z,18.00
2019-04-20T06:03:25.941Z,19.50
2019-04-20T06:06:09.304Z,16.90
2019-04-20T06:11:04.595Z,19.92
2019-04-20T06:13:47.054Z,15.90
2019-04-20T06:16:31.584Z,17.37
2019-04-20T06:19:10.068Z,21.35
2019-04-20T06:22:06.463Z,17.32
2019-04-20T06:24:46.892Z,18.27
2019-04-20T06:27:03.224Z,17.45
2019-04-20T06:29:34.903Z,14.87
2019-04-20T06:32:17.389Z,17.50
2019-04-20T06:34:53.515Z,17.55
2019-04-20T06:37:02.559Z,17.10
2019-04-20T06:39:44.819Z,17.85
2019-04-20T06:44:50.502Z,21.35
2019-04-20T06:47:18.837Z,18.48
2019-04-20T06:49:48.647Z,20.83
2019-04-20T06:55:36.776Z,17.57
2019-04-20T06:57:56.343Z,23.47
2019-04-20T07:00:18.242Z,21.10
2019-04-20T07:02:48.334Z,21.87
2019-04-20T07:05:22.133Z,25.17
2019-04-20T07:07:54.885Z,21.37
2019-04-20T07:10:40.718Z,23.07
2019-04-20T07:12:45.107Z,21.57
2019-04-20T07:15:16.259Z,29.70
2019-04-20T07:17:57.346Z,22.33
2019-04-20T07:20:47.368Z,25.00
2019-04-20T07:23:18.964Z,18.77
2019-04-20T07:25:40.292Z,20.43
2019-04-20T07:28:14.422Z,20.43
2019-04-20T07:30:43.686Z,22.07
2019-04-20T07:33:08.779Z,18.93
2019-04-20T07:35:40.438Z,19.73
2019-04-20T07:40:42.886Z,20.40
2019-04-20T07:43:14.963Z,20.33
2019-04-20T07:45:46.671Z,19.33
2019-04-20T07:48:21.902Z,21.27
2019-04-20T07:50:44.646Z,20.57
2019-04-20T07:53:22.858Z,16.80
2019-04-20T07:55:59.269Z,18.47
2019-04-20T07:58:17.286Z,17.17
2019-04-20T08:01:10.279Z,18.57
2019-04-20T08:03:42.597Z,17.07
2019-04-20T08:06:11.576Z,20.70
2019-04-20T08:08:48.981Z,15.77
2019-04-20T08:11:21.141Z,23.03
2019-04-20T08:14:00.317Z,18.03
2019-04-20T08:16:31.086Z,17.93
2019-04-20T08:18:55.117Z,17.13
2019-04-20T08:21:29.394Z,17.30
2019-04-20T08:23:55.695Z,18.23
2019-04-20T08:26:14.280Z,16.77
2019-04-20T08:28:51.935Z,18.67
2019-04-20T08:31:51.458Z,18.57
2019-04-20T08:34:42.991Z,18.47
2019-04-20T08:37:00.910Z,17.07
2019-04-20T08:39:46.933Z,17.37
2019-04-20T08:42:11.648Z,18.93
2019-04-20T08:44:58.970Z,18.27
2019-04-20T08:47:18.276Z,16.17
2019-04-20T08:50:03.807Z,18.30
2019-04-20T08:52:46.900Z,16.57
2019-04-20T08:55:01.190Z,16.37
2019-04-20T08:57:09.597Z,17.53
2019-04-20T08:59:40.158Z,16.93
2019-04-20T09:02:12.398Z,14.93
2019-04-20T09:04:49.015Z,12.07
2019-04-20T09:07:18.267Z,13.67
2019-04-20T09:10:05.204Z,17.37
2019-04-20T09:12:30.817Z,18.23
2019-04-20T09:14:46.246Z,14.57
2019-04-20T09:17:36.530Z,15.47
2019-04-20T09:20:10.317Z,13.58
2019-04-20T09:22:48.200Z,12.60
2019-04-20T09:25:49.752Z,12.78
2019-04-20T09:27:47.617Z,13.93
2019-04-20T09:30:25.454Z,12.23
2019-04-20T09:33:09.970Z,11.55
2019-04-20T09:35:37.310Z,15.98
2019-04-20T09:38:11.588Z,11.45
2019-04-20T09:40:41.614Z,9.73
2019-04-20T09:43:18.578Z,9.70
2019-04-20T09:45:56.945Z,11.63
2019-04-20T09:48:31.292Z,11.35
2019-04-20T09:51:09.180Z,13.10
2019-04-20T09:53:35.785Z,12.28
2019-04-20T09:56:06.601Z,10.53
2019-04-20T09:58:33.163Z,8.80
2019-04-20T10:01:09.939Z,15.18
2019-04-20T10:03:25.135Z,10.38
2019-04-20T10:05:55.820Z,9.88
2019-04-20T10:08:23.944Z,9.48
2019-04-20T10:10:52.939Z,11.05
2019-04-20T10:13:21.557Z,9.90
2019-04-20T10:15:50.358Z,13.58
2019-04-20T10:18:17.812Z,10.48
2019-04-20T10:20:47.367Z,10.32
2019-04-20T10:23:14.913Z,9.80
2019-04-20T10:25:44.749Z,9.83
2019-04-20T10:28:13.872Z,9.53
2019-04-20T10:30:41.581Z,9.63
2019-04-20T10:33:10.408Z,11.80
2019-04-20T10:35:39.165Z,10.28
2019-04-20T10:38:17.864Z,10.80
2019-04-20T10:40:55.816Z,11.12
2019-04-20T10:43:16.216Z,9.15
2019-04-20T10:45:46.930Z,14.55
2019-04-20T10:48:15.151Z,10.40
2019-04-20T10:50:45.119Z,8.05
2019-04-20T10:53:15.239Z,10.65
2019-04-20T10:55:45.170Z,10.65
2019-04-20T10:58:13.639Z,10.03
2019-04-20T11:00:43.840Z,10.28
2019-04-20T11:03:15.732Z,10.48
2019-04-20T11:05:44.613Z,15.98
2019-04-20T11:08:16.721Z,10.80
2019-04-20T11:11:01.261Z,9.50
2019-04-20T11:13:19.366Z,11.20
2019-04-20T11:15:48.403Z,8.23
2019-04-20T11:18:25.259Z,8.45
2019-04-20T11:20:53.302Z,6.97
2019-04-20T11:23:24.431Z,8.93
2019-04-20T11:25:52.521Z,6.75
2019-04-20T11:28:22.101Z,6.85
2019-04-20T11:30:50.075Z,6.60
2019-04-20T11:33:20.300Z,7.40
2019-04-20T11:35:48.558Z,10.15
2019-04-20T11:38:22.440Z,14.50
2019-04-20T11:41:01.524Z,6.40
2019-04-20T11:43:23.930Z,5.53
2019-04-20T11:45:51.205Z,7.75
2019-04-20T11:48:21.291Z,8.43
2019-04-20T11:50:49.549Z,6.00
2019-04-20T11:53:21.449Z,7.35
2019-04-20T11:55:50.279Z,4.15
2019-04-20T11:58:24.315Z,3.80
2019-04-20T12:01:02.944Z,5.15
2019-04-20T12:03:40.205Z,3.00
2019-04-20T12:06:04.684Z,3.77
2019-04-20T12:08:31.196Z,3.20
2019-04-20T12:11:18.775Z,3.40
2019-04-20T12:13:32.727Z,3.95
2019-04-20T12:16:01.549Z,4.40
2019-04-20T12:18:31.638Z,6.20
2019-04-20T12:20:58.903Z,4.45
2019-04-20T12:23:28.684Z,5.70
2019-04-20T12:25:57.998Z,7.58
2019-04-20T12:28:27.529Z,7.03
2019-04-20T12:31:04.024Z,5.10
2019-04-20T12:33:32.616Z,5.10
2019-04-20T12:36:00.366Z,6.35
2019-04-20T12:38:30.815Z,5.37
2019-04-20T12:41:01.369Z,5.67
2019-04-20T12:43:33.889Z,7.53
2019-04-20T12:46:02.200Z,5.12
2019-04-20T12:48:31.183Z,5.17
2019-04-20T12:51:01.515Z,6.12
2019-04-20T12:53:32.758Z,5.55
2019-04-20T12:56:00.249Z,4.47
2019-04-20T12:58:28.461Z,5.55
2019-04-20T13:00:58.246Z,5.72
2019-04-20T13:03:27.654Z,5.65
2019-04-20T13:05:56.116Z,6.58
2019-04-20T13:08:34.638Z,5.30
2019-04-20T13:11:04.574Z,6.28
2019-04-20T13:14:02.101Z,7.50
2019-04-20T13:16:30.374Z,6.33
2019-04-20T13:19:03.552Z,7.45
2019-04-20T13:21:36.845Z,5.58
2019-04-20T13:24:05.123Z,8.43
2019-04-20T13:26:33.269Z,7.45
2019-04-20T13:29:02.262Z,6.35
2019-04-20T13:31:31.549Z,4.85
2019-04-20T13:33:59.186Z,8.73
2019-04-20T13:36:28.521Z,5.78
2019-04-20T13:38:59.666Z,5.08
2019-04-20T13:41:27.735Z,6.10
2019-04-20T13:43:58.424Z,5.37
2019-04-20T13:46:25.479Z,8.38
2019-04-20T13:48:55.075Z,5.35
2019-04-20T13:51:24.649Z,5.60
2019-04-20T13:53:57.265Z,5.62
2019-04-20T13:56:25.891Z,7.45
2019-04-20T13:59:32.067Z,6.03
2019-04-20T14:02:10.808Z,6.12
2019-04-20T14:05:00.803Z,6.03
2019-04-20T14:07:29.244Z,7.97
2019-04-20T14:09:57.425Z,6.03
2019-04-20T14:12:35.086Z,5.35
2019-04-20T14:14:57.794Z,5.92
2019-04-20T14:17:26.719Z,4.83
2019-04-20T14:19:54.864Z,6.87
2019-04-20T14:22:25.306Z,5.17
2019-04-20T14:24:55.156Z,6.10
2019-04-20T14:27:22.024Z,5.90
2019-04-20T14:29:52.971Z,6.33
2019-04-20T14:32:22.802Z,5.55
2019-04-20T14:34:53.239Z,6.95
2019-04-20T14:37:24.688Z,7.78
2019-04-20T14:39:52.366Z,8.55
2019-04-20T14:42:33.092Z,8.23
2019-04-20T14:44:52.203Z,6.40
2019-04-20T14:47:25.642Z,5.15
2019-04-20T14:49:55.162Z,6.45
2019-04-20T14:52:23.861Z,7.55
2019-04-20T14:54:51.686Z,5.45
2019-04-20T14:57:19.331Z,9.13
2019-04-20T14:59:55.940Z,5.78
2019-04-20T15:02:27.915Z,8.95
2019-04-20T15:04:56.881Z,9.95
2019-04-20T15:07:28.887Z,9.63
2019-04-20T15:09:57.107Z,11.48
2019-04-20T15:12:37.872Z,10.82
2019-04-20T15:14:56.591Z,8.20
2019-04-20T15:17:37.990Z,9.53
2019-04-20T15:20:19.317Z,10.10
2019-04-20T15:22:51.714Z,7.22
2019-04-20T15:25:21.326Z,7.72
2019-04-20T15:27:50.598Z,10.50
2019-04-20T15:30:22.287Z,8.30
2019-04-20T15:32:54.654Z,8.20
2019-04-20T15:35:24.632Z,15.23
2019-04-20T15:37:55.413Z,10.88
2019-04-20T15:40:23.525Z,8.90
2019-04-20T15:42:58.884Z,9.00
2019-04-20T15:45:23.616Z,6.72
2019-04-20T15:47:54.639Z,7.80
2019-04-20T15:50:33.840Z,8.85
2019-04-20T15:53:03.956Z,7.00
2019-04-20T15:55:37.466Z,13.08
2019-04-20T15:58:04.338Z,6.72
2019-04-20T16:00:32.240Z,8.88
2019-04-20T16:03:35.085Z,9.43
2019-04-20T16:06:07.461Z,10.32
2019-04-20T16:08:38.861Z,7.08
2019-04-20T16:11:13.282Z,6.08
2019-04-20T16:13:44.684Z,9.25
2019-04-20T16:16:10.183Z,9.58
2019-04-20T16:18:38.972Z,8.83
2019-04-20T16:21:14.250Z,7.15
2019-04-20T16:23:58.959Z,8.45
2019-04-20T16:26:44.123Z,12.58
2019-04-20T16:29:15.433Z,8.30
2019-04-20T16:31:46.396Z,8.30
2019-04-20T16:34:15.874Z,13.70
2019-04-20T16:36:42.039Z,10.43
2019-04-20T16:39:11.132Z,7.10
2019-04-20T16:41:40.259Z,10.93
2019-04-20T16:44:11.347Z,14.40
2019-04-20T16:46:40.481Z,9.85
2019-04-20T16:49:08.474Z,8.58
2019-04-20T16:51:42.983Z,8.65
2019-04-20T16:54:10.094Z,9.58
2019-04-20T16:56:40.777Z,11.75
2019-04-20T16:59:13.229Z,8.35
2019-04-20T17:01:40.614Z,7.42
2019-04-20T17:04:13.668Z,7.85
2019-04-20T17:06:42.482Z,8.85
2019-04-20T17:09:31.479Z,6.22
2019-04-20T17:12:03.666Z,7.42
2019-04-20T17:14:33.847Z,6.15
2019-04-20T17:17:02.420Z,6.45
2019-04-20T17:19:31.482Z,7.83
2019-04-20T17:21:59.148Z,6.97
2019-04-20T17:24:27.324Z,6.92
2019-04-20T17:27:12.941Z,7.20
2019-04-20T17:30:01.134Z,9.30
2019-04-20T17:32:29.607Z,9.58
2019-04-20T17:35:12.730Z,9.55
2019-04-20T17:37:33.708Z,10.98
2019-04-20T17:40:19.238Z,9.25
2019-04-20T17:42:46.191Z,7.72
2019-04-20T17:45:08.619Z,9.48
2019-04-20T17:47:55.956Z,11.68
2019-04-20T17:50:27.476Z,12.05
2019-04-20T17:52:57.859Z,8.33
2019-04-20T17:55:24.582Z,7.15
2019-04-20T17:57:45.093Z,9.33
2019-04-20T18:00:29.015Z,7.60
2019-04-20T18:03:14.810Z,11.00
2019-04-20T18:06:04.689Z,8.75
2019-04-20T18:08:29.935Z,9.78
2019-04-20T18:10:57.041Z,10.35
2019-04-20T18:13:24.058Z,9.58
2019-04-20T18:16:23.512Z,10.93
2019-04-20T18:18:57.443Z,12.60
2019-04-20T18:21:30.645Z,10.35
2019-04-20T18:24:05.288Z,15.90
2019-04-20T18:26:53.768Z,8.75
2019-04-20T18:29:28.095Z,10.75
2019-04-20T18:31:55.604Z,8.43
2019-04-20T18:34:45.873Z,8.08
2019-04-20T18:37:17.303Z,10.32
2019-04-20T18:39:54.798Z,9.90
2019-04-20T18:42:25.014Z,10.63
2019-04-20T18:45:09.062Z,8.95
2019-04-20T18:47:44.195Z,10.05
2019-04-20T18:49:57.138Z,9.38
2019-04-20T18:52:21.992Z,10.88
2019-04-20T18:54:55.422Z,8.08
2019-04-20T18:57:26.574Z,8.23
2019-04-20T18:59:58.825Z,9.93
2019-04-20T19:02:32.780Z,6.83
2019-04-20T19:04:59.696Z,8.00
2019-04-20T19:07:34.874Z,8.05
2019-04-20T19:10:14.521Z,12.78
2019-04-20T19:12:47.788Z,9.40
2019-04-20T19:15:56.532Z,8.95
2019-04-20T19:18:26.054Z,10.68
2019-04-20T19:20:47.026Z,8.48
2019-04-20T19:23:20.954Z,7.97
2019-04-20T19:25:49.766Z,9.38
2019-04-20T19:28:22.757Z,9.13
2019-04-20T19:31:01.834Z,9.88
2019-04-20T19:33:31.066Z,11.80
2019-04-20T19:35:57.677Z,10.78
2019-04-20T19:38:24.528Z,9.23
2019-04-20T19:40:58.242Z,10.20
2019-04-20T19:43:26.670Z,10.37
2019-04-20T19:46:29.736Z,8.50
2019-04-20T19:48:32.465Z,11.88
2019-04-20T19:51:19.197Z,9.83
2019-04-20T19:53:51.586Z,11.57
2019-04-20T19:56:06.297Z,12.00
2019-04-20T19:58:34.490Z,12.90
2019-04-20T20:00:57.707Z,8.80
2019-04-20T20:03:27.932Z,9.87
2019-04-20T20:05:57.513Z,13.13
2019-04-20T20:08:29.958Z,11.33
2019-04-20T20:11:01.861Z,11.67
2019-04-20T20:13:36.256Z,11.23
2019-04-20T20:16:05.968Z,14.47
2019-04-20T20:18:39.259Z,11.78
2019-04-20T20:21:11.022Z,10.80
2019-04-20T20:23:28.365Z,11.13
2019-04-20T20:25:57.042Z,13.00
2019-04-20T20:28:34.606Z,12.23
2019-04-20T20:31:08.362Z,11.93
2019-04-20T20:33:43.937Z,12.37
2019-04-20T20:36:08.830Z,13.97
2019-04-20T20:38:36.639Z,12.57
2019-04-20T20:41:05.709Z,13.23
2019-04-20T20:43:43.507Z,10.27
2019-04-20T20:46:05.067Z,12.73
2019-04-20T20:48:38.795Z,10.47
2019-04-20T20:51:15.103Z,15.43
2019-04-20T20:53:41.718Z,14.63
2019-04-20T20:56:09.499Z,13.97
2019-04-20T20:58:43.901Z,12.00
2019-04-20T21:01:09.698Z,12.57
2019-04-20T21:03:36.537Z,16.60
2019-04-20T21:06:03.421Z,14.60
2019-04-20T21:08:36.276Z,12.73
2019-04-20T21:11:05.759Z,11.63
2019-04-20T21:13:37.417Z,13.60
2019-04-20T21:16:07.115Z,14.23
2019-04-20T21:18:52.559Z,13.03
2019-04-20T21:21:19.166Z,19.57
2019-04-20T21:23:42.829Z,16.37
2019-04-20T21:26:11.039Z,15.27
2019-04-20T21:28:39.728Z,14.73
2019-04-20T21:31:16.278Z,11.43
2019-04-20T21:33:40.361Z,13.17
2019-04-20T21:36:09.238Z,16.43
2019-04-20T21:38:42.903Z,13.40
2019-04-20T21:41:16.032Z,12.57
2019-04-20T21:43:42.859Z,20.57
2019-04-20T21:46:11.715Z,11.93
2019-04-20T21:48:55.957Z,14.33
2019-04-20T21:51:27.474Z,13.20
2019-04-20T21:53:39.443Z,13.03
2019-04-20T21:56:10.185Z,16.67
2019-04-20T21:58:46.372Z,15.47
2019-04-20T22:01:18.645Z,11.73
2019-04-20T22:03:38.439Z,15.20
2019-04-20T22:06:08.755Z,13.57
2019-04-20T22:08:39.510Z,12.77
2019-04-20T22:11:05.980Z,16.53
2019-04-20T22:13:40.208Z,11.37
2019-04-20T22:16:12.196Z,16.97
2019-04-20T22:18:48.521Z,13.60
2019-04-20T22:21:17.643Z,14.57
2019-04-20T22:23:54.709Z,14.33
2019-04-20T22:26:18.677Z,11.30
2019-04-20T22:28:36.417Z,12.53
2019-04-20T22:31:04.235Z,14.63
2019-04-20T22:33:41.045Z,11.90
2019-04-20T22:36:12.720Z,17.17
2019-04-20T22:39:05.502Z,16.90
2019-04-20T22:41:36.399Z,13.33
2019-04-20T22:44:11.547Z,15.07
2019-04-20T22:46:36.860Z,16.03
2019-04-20T22:49:21.066Z,19.73
2019-04-20T22:51:44.801Z,14.43
2019-04-20T22:54:18.983Z,14.10
2019-04-20T22:56:44.579Z,15.30
2019-04-20T22:59:08.605Z,15.03
2019-04-20T23:01:38.762Z,14.37
2019-04-20T23:04:01.082Z,14.87
2019-04-20T23:06:34.323Z,13.80
2019-04-20T23:09:06.864Z,13.50
2019-04-20T23:11:33.286Z,14.93
2019-04-20T23:14:00.455Z,16.20
2019-04-20T23:16:37.849Z,16.83
2019-04-20T23:18:58.234Z,14.83
2019-04-20T23:21:25.957Z,17.30
2019-04-20T23:24:01.622Z,15.33
2019-04-20T23:26:35.905Z,14.97
2019-04-20T23:28:59.546Z,16.17
2019-04-20T23:31:27.365Z,20.70
2019-04-20T23:33:56.148Z,17.13
2019-04-20T23:36:29.258Z,16.70
2019-04-20T23:38:57.712Z,16.20
2019-04-20T23:41:23.732Z,13.47
2019-04-20T23:44:03.964Z,16.80
2019-04-20T23:46:48.545Z,15.30
2019-04-20T23:50:00.166Z,18.63
2019-04-20T23:52:38.502Z,14.63
2019-04-20T23:54:50.236Z,12.83
2019-04-20T23:57:09.343Z,16.17
2019-04-20T23:59:39.573Z,14.83
